Mindenmines, MO (64769)

2:05 PM CDT on March 24, 2017 (GMT -0500)
Double J Energy | | Change Station

Elev 955 ft 37.47 °N, 94.58 °W | Updated 3 minutes ago

Rain
Rain
61.3 °F
Feels Like 61.3 °F
N
8.0
Wind Variable Wind from South
Gusts 15.0 mph

Today
High -- | Low -- °F
--% Chance of Precip.
Yesterday
High -- | Low -- °F
Precip. -- in
Pressure 29.87 in
Visibility 10.0 miles
Clouds Scattered Clouds 3300 ft
Mostly Cloudy 6000 ft
Mostly Cloudy 9500 ft
Dew Point 58 °F
Humidity 88%
Rainfall 0.27 in
Snow Depth Not available.
7:15 AM 7:34 PM
Waning Crescent, 13% visible
METAR KPTS 241855Z AUTO 18013G20KT 10SM SCT033 BKN060 BKN095 18/14 A2987 RMK AO2 LTG DSNT N THRU E P0001 T01780142
Pressure 29.87 in
Visibility 10.0 miles
Clouds Scattered Clouds 3300 ft
Mostly Cloudy 6000 ft
Mostly Cloudy 9500 ft
Dew Point 58 °F
Humidity 88%
Rainfall 0.27 in
Snow Depth Not available.
7:15 AM 7:34 PM
Waning Crescent, 13% visible
METAR KPTS 241855Z AUTO 18013G20KT 10SM SCT033 BKN060 BKN095 18/14 A2987 RMK AO2 LTG DSNT N THRU E P0001 T01780142

Get Severe Weather Alerts

Thanks for signing up!

Be on the lookout for a verification email in your inbox.

You'll start receiving the daily forecast at 8 AM.

×

10-Day Weather Forecast

Almanac

Astronomy

Mar. 24, 2017 Rise Set
Actual Time
Civil Twilight
Nautical Twilight
Astronomical Twilight
Moon
Length of Visible Light
Length of Day
Tomorrow will be .
, % of the Moon is Illuminated

Today's Extremes

State Highs State Lows

Community

WunderPhotos

Upload Photos

1,962,540 photos uploaded!

WunderBlog® & News

Nearby

Air Quality

  Air Quality AQ Index Pollutant
Not available.

Snow Depth

Station Depth Elevation

Earthquake Activity

City Distance Mag. Time & Date
Minimum magnitude displayed is 2.5.

Earthquake Activity

City Distance Mag. Time & Date
Minimum magnitude displayed is 2.5.

Coastal Water Temperatures

Place Temperature

Stations

Nearby Weather Stations

Station Location Temp. Windchill Dew Point Humidity Wind Precip. Elev Updated Type
                   

Watches & Warnings

There are currently no watches in effect.